createdAt,value
2022-09-03T00:02:49.903Z,16.10
2022-09-03T00:05:25.876Z,16.10
2022-09-03T00:08:12.492Z,16.10
2022-09-03T00:11:19.380Z,16.10
2022-09-03T00:14:02.746Z,16.00
2022-09-03T00:16:37.927Z,15.90
2022-09-03T00:19:05.069Z,15.80
2022-09-03T00:21:52.273Z,15.80
2022-09-03T00:24:23.054Z,15.70
2022-09-03T00:26:59.553Z,15.80
2022-09-03T00:29:36.552Z,15.70
2022-09-03T00:32:10.877Z,15.70
2022-09-03T00:34:44.597Z,15.90
2022-09-03T00:37:14.299Z,15.90
2022-09-03T00:39:42.650Z,16.00
2022-09-03T00:42:39.714Z,15.90
2022-09-03T00:45:12.107Z,15.70
2022-09-03T00:48:01.081Z,15.60
2022-09-03T00:50:33.239Z,15.60
2022-09-03T00:53:14.971Z,15.60
2022-09-03T00:56:09.639Z,15.50
2022-09-03T00:59:14.021Z,15.60
2022-09-03T01:01:46.447Z,15.50
2022-09-03T01:04:16.112Z,15.40
2022-09-03T01:07:01.855Z,15.50
2022-09-03T01:09:44.331Z,15.40
2022-09-03T01:12:35.001Z,15.30
2022-09-03T01:15:10.298Z,15.30
2022-09-03T01:18:00.114Z,15.30
2022-09-03T01:21:09.830Z,15.40
2022-09-03T01:24:08.621Z,15.30
2022-09-03T01:26:38.226Z,15.20
2022-09-03T01:29:24.435Z,15.10
2022-09-03T01:32:19.584Z,15.10
2022-09-03T01:35:03.510Z,15.00
2022-09-03T01:38:08.676Z,15.10
2022-09-03T01:41:03.067Z,15.10
2022-09-03T01:44:06.228Z,14.90
2022-09-03T01:46:43.464Z,14.80
2022-09-03T01:49:21.845Z,14.90
2022-09-03T01:51:55.876Z,14.80
2022-09-03T01:54:52.353Z,14.90
2022-09-03T01:57:42.086Z,14.70
2022-09-03T02:00:17.594Z,14.70
2022-09-03T02:02:46.636Z,14.80
2022-09-03T02:05:17.433Z,14.70
2022-09-03T02:07:46.020Z,14.70
2022-09-03T02:10:17.317Z,14.70
2022-09-03T02:12:49.305Z,14.60
2022-09-03T02:15:19.695Z,14.60
2022-09-03T02:17:48.314Z,14.50
2022-09-03T02:20:21.328Z,14.50
2022-09-03T02:22:49.206Z,14.50
2022-09-03T02:25:17.410Z,14.50
2022-09-03T02:27:45.373Z,14.50
2022-09-03T02:30:12.328Z,14.40
2022-09-03T02:32:39.246Z,14.40
2022-09-03T02:35:06.338Z,14.40
2022-09-03T02:37:32.990Z,14.30
2022-09-03T02:39:59.652Z,14.20
2022-09-03T02:42:26.422Z,14.20
2022-09-03T02:45:00.290Z,14.20
2022-09-03T02:47:32.991Z,14.30
2022-09-03T02:49:59.580Z,14.30
2022-09-03T02:52:26.269Z,14.20
2022-09-03T02:54:52.846Z,14.10
2022-09-03T02:57:27.399Z,14.10
2022-09-03T02:59:54.251Z,14.10
2022-09-03T03:02:20.886Z,14.20
2022-09-03T03:04:47.574Z,14.20
2022-09-03T03:07:14.217Z,14.10
2022-09-03T03:09:40.795Z,14.00
2022-09-03T03:12:07.596Z,13.90
2022-09-03T03:14:34.208Z,13.90
2022-09-03T03:17:00.867Z,13.90
2022-09-03T03:19:27.502Z,14.00
2022-09-03T03:21:54.116Z,14.00
2022-09-03T03:24:20.713Z,13.90
2022-09-03T03:26:47.300Z,13.90
2022-09-03T03:29:17.730Z,13.90
2022-09-03T03:31:44.450Z,13.90
2022-09-03T03:34:11.053Z,13.90
2022-09-03T03:36:37.780Z,13.90
2022-09-03T03:39:04.466Z,13.90
2022-09-03T03:41:33.537Z,13.90
2022-09-03T03:44:05.884Z,13.90
2022-09-03T03:46:40.660Z,13.90
2022-09-03T03:49:08.725Z,13.90
2022-09-03T03:51:36.731Z,14.00
2022-09-03T03:54:05.414Z,13.90
2022-09-03T03:56:32.733Z,13.90
2022-09-03T03:58:59.908Z,13.90
2022-09-03T04:01:27.916Z,13.90
2022-09-03T04:03:59.233Z,13.70
2022-09-03T04:06:26.574Z,13.70
2022-09-03T04:08:53.371Z,13.60
2022-09-03T04:11:22.690Z,13.60
2022-09-03T04:13:50.167Z,13.50
2022-09-03T04:16:25.205Z,13.50
2022-09-03T04:18:53.283Z,13.50
2022-09-03T04:21:30.789Z,13.50
2022-09-03T04:23:58.328Z,13.60
2022-09-03T04:26:27.872Z,13.60
2022-09-03T04:28:54.549Z,13.60
2022-09-03T04:31:21.418Z,13.50
2022-09-03T04:33:48.617Z,13.50
2022-09-03T04:36:17.669Z,13.60
2022-09-03T04:38:46.439Z,13.60
2022-09-03T04:41:15.702Z,13.60
2022-09-03T04:43:42.711Z,13.60
2022-09-03T04:46:16.461Z,13.60
2022-09-03T04:48:48.477Z,13.50
2022-09-03T04:51:17.752Z,13.40
2022-09-03T04:53:46.205Z,13.40
2022-09-03T04:56:18.837Z,13.40
2022-09-03T04:58:46.217Z,13.40
2022-09-03T05:01:19.632Z,13.50
2022-09-03T05:03:46.741Z,13.50
2022-09-03T05:06:13.913Z,13.50
2022-09-03T05:08:40.588Z,13.60
2022-09-03T05:11:07.945Z,13.60
2022-09-03T05:13:35.651Z,13.60
2022-09-03T05:16:05.586Z,13.60
2022-09-03T05:18:32.989Z,13.70
2022-09-03T05:21:05.251Z,13.70
2022-09-03T05:23:37.655Z,13.70
2022-09-03T05:26:07.767Z,13.70
2022-09-03T05:28:39.895Z,13.80
2022-09-03T05:31:15.222Z,13.90
2022-09-03T05:33:44.467Z,13.80
2022-09-03T05:36:13.379Z,13.90
2022-09-03T05:38:40.355Z,14.00
2022-09-03T05:41:09.546Z,14.00
2022-09-03T05:43:36.863Z,14.00
2022-09-03T05:46:12.549Z,14.00
2022-09-03T05:48:40.581Z,14.10
2022-09-03T05:51:12.121Z,14.00
2022-09-03T05:53:40.542Z,14.10
2022-09-03T05:56:12.410Z,14.20
2022-09-03T05:58:41.690Z,14.30
2022-09-03T06:01:15.620Z,14.30
2022-09-03T06:03:43.865Z,14.30
2022-09-03T06:06:11.094Z,14.30
2022-09-03T06:08:37.794Z,14.20
2022-09-03T06:11:04.855Z,14.30
2022-09-03T06:13:32.741Z,14.30
2022-09-03T06:16:01.243Z,14.30
2022-09-03T06:18:28.805Z,14.30
2022-09-03T06:20:56.265Z,14.40
2022-09-03T06:23:24.223Z,14.30
2022-09-03T06:26:06.107Z,14.30
2022-09-03T06:28:34.371Z,14.30
2022-09-03T06:31:02.078Z,14.30
2022-09-03T06:33:30.377Z,14.20
2022-09-03T06:36:03.791Z,14.20
2022-09-03T06:38:34.250Z,14.30
2022-09-03T06:41:02.265Z,14.10
2022-09-03T06:43:31.355Z,14.10
2022-09-03T06:46:00.344Z,14.30
2022-09-03T06:48:29.806Z,14.30
2022-09-03T06:51:14.291Z,14.30
2022-09-03T06:53:46.038Z,14.20
2022-09-03T06:56:16.327Z,14.20
2022-09-03T06:58:45.583Z,14.20
2022-09-03T07:01:18.258Z,14.20
2022-09-03T07:03:47.619Z,14.30
2022-09-03T07:06:19.667Z,14.20
2022-09-03T07:08:46.795Z,14.20
2022-09-03T07:11:19.271Z,14.10
2022-09-03T07:13:48.009Z,14.20
2022-09-03T07:16:20.390Z,14.30
2022-09-03T07:18:48.041Z,14.30
2022-09-03T07:21:17.339Z,14.40
2022-09-03T07:23:44.539Z,14.30
2022-09-03T07:26:13.670Z,14.30
2022-09-03T07:28:42.267Z,14.40
2022-09-03T07:31:14.862Z,14.30
2022-09-03T07:33:44.722Z,14.40
2022-09-03T07:36:16.028Z,14.70
2022-09-03T07:38:45.112Z,15.00
2022-09-03T07:41:26.822Z,15.20
2022-09-03T07:43:55.747Z,15.30
2022-09-03T07:46:27.344Z,15.50
2022-09-03T07:48:55.925Z,15.70
2022-09-03T07:51:25.428Z,15.90
2022-09-03T07:53:54.686Z,16.10
2022-09-03T07:56:21.491Z,16.10
2022-09-03T07:58:48.124Z,16.10
2022-09-03T08:01:18.089Z,16.10
2022-09-03T08:03:50.192Z,16.20
2022-09-03T08:06:18.496Z,16.30
2022-09-03T08:08:45.318Z,16.40
2022-09-03T08:11:19.634Z,16.50
2022-09-03T08:14:07.115Z,16.50
2022-09-03T08:16:36.841Z,16.60
2022-09-03T08:19:04.277Z,16.80
2022-09-03T08:21:31.510Z,17.00
2022-09-03T08:23:58.242Z,17.20
2022-09-03T08:26:24.836Z,17.40
2022-09-03T08:28:52.766Z,17.60
2022-09-03T08:31:21.888Z,17.80
2022-09-03T08:33:50.639Z,18.00
2022-09-03T08:36:43.536Z,18.10
2022-09-03T08:39:11.269Z,18.00
2022-09-03T08:41:47.067Z,18.20
2022-09-03T08:44:49.142Z,18.30
2022-09-03T08:47:18.715Z,18.50
2022-09-03T08:49:48.405Z,18.60
2022-09-03T08:52:37.975Z,18.60
2022-09-03T08:55:20.316Z,18.70
2022-09-03T08:58:17.378Z,18.80
2022-09-03T09:01:12.773Z,18.80
2022-09-03T09:04:02.627Z,19.10
2022-09-03T09:06:33.991Z,19.30
2022-09-03T09:09:10.462Z,19.50
2022-09-03T09:12:02.483Z,19.50
2022-09-03T09:14:59.275Z,19.40
2022-09-03T09:17:46.653Z,19.40
2022-09-03T09:20:32.827Z,19.50
2022-09-03T09:23:06.098Z,19.60
2022-09-03T09:25:33.630Z,19.80
2022-09-03T09:28:18.670Z,20.10
2022-09-03T09:30:47.821Z,20.20
2022-09-03T09:33:15.992Z,20.30
2022-09-03T09:35:43.966Z,20.40
2022-09-03T09:38:11.967Z,20.60
2022-09-03T09:40:45.145Z,20.60
2022-09-03T09:43:19.749Z,20.70
2022-09-03T09:45:49.013Z,20.80
2022-09-03T09:48:37.103Z,21.00
2022-09-03T09:51:13.111Z,21.00
2022-09-03T09:53:40.777Z,20.90
2022-09-03T09:56:08.048Z,20.80
2022-09-03T09:58:35.337Z,20.60
2022-09-03T10:01:04.812Z,20.50
2022-09-03T10:03:35.007Z,20.40
2022-09-03T10:06:08.445Z,20.30
2022-09-03T10:08:35.071Z,20.30
2022-09-03T10:11:01.777Z,20.20
2022-09-03T10:13:42.246Z,20.20
2022-09-03T10:16:22.064Z,20.10
2022-09-03T10:19:09.719Z,20.00
2022-09-03T10:21:46.979Z,20.00
2022-09-03T10:24:19.643Z,20.00
2022-09-03T10:26:46.243Z,20.00
2022-09-03T10:29:20.022Z,20.00
2022-09-03T10:32:05.712Z,20.00
2022-09-03T10:34:45.138Z,20.00
2022-09-03T10:37:25.882Z,20.00
2022-09-03T10:40:20.146Z,20.00
2022-09-03T10:43:03.703Z,20.10
2022-09-03T10:45:46.838Z,20.30
2022-09-03T10:48:26.439Z,20.40
2022-09-03T10:50:57.575Z,20.60
2022-09-03T10:53:53.724Z,21.00
2022-09-03T10:56:44.421Z,21.30
2022-09-03T10:59:40.091Z,21.80
2022-09-03T11:02:15.498Z,22.20
2022-09-03T11:05:04.882Z,22.30
2022-09-03T11:07:39.825Z,22.00
2022-09-03T11:10:15.737Z,22.00
2022-09-03T11:12:58.535Z,21.90
2022-09-03T11:15:31.400Z,21.90
2022-09-03T11:18:31.582Z,21.90
2022-09-03T11:21:00.807Z,21.80
2022-09-03T11:23:29.902Z,21.80
2022-09-03T11:26:02.865Z,22.00
2022-09-03T11:29:01.407Z,22.30
2022-09-03T11:31:46.614Z,22.40
2022-09-03T11:34:44.673Z,22.60
2022-09-03T11:37:26.851Z,22.60
2022-09-03T11:40:17.045Z,22.80
2022-09-03T11:42:44.567Z,22.90
2022-09-03T11:45:29.607Z,23.30
2022-09-03T11:47:56.345Z,23.60
2022-09-03T11:50:31.217Z,23.70
2022-09-03T11:53:14.805Z,23.90
2022-09-03T11:55:53.055Z,23.90
2022-09-03T11:58:23.367Z,23.80
2022-09-03T12:00:50.041Z,23.70
2022-09-03T12:03:16.644Z,23.50
2022-09-03T12:06:00.398Z,23.30
2022-09-03T12:08:55.565Z,23.20
2022-09-03T12:11:39.275Z,23.30
2022-09-03T12:14:30.817Z,23.80
2022-09-03T12:17:19.421Z,24.00
2022-09-03T12:19:52.432Z,24.30
2022-09-03T12:22:21.047Z,24.70
2022-09-03T12:24:47.995Z,24.70
2022-09-03T12:27:25.823Z,24.60
2022-09-03T12:29:58.514Z,24.80
2022-09-03T12:32:26.181Z,24.80
2022-09-03T12:34:53.637Z,25.10
2022-09-03T12:40:18.719Z,25.10
2022-09-03T12:42:45.371Z,25.00
2022-09-03T12:45:12.513Z,25.40
2022-09-03T12:47:40.421Z,25.20
2022-09-03T12:50:13.308Z,24.80
2022-09-03T12:52:45.238Z,24.30
2022-09-03T12:55:52.522Z,24.10
2022-09-03T12:58:21.238Z,24.20
2022-09-03T13:00:59.093Z,24.00
2022-09-03T13:03:33.831Z,24.00
2022-09-03T13:06:07.111Z,23.80
2022-09-03T13:08:44.251Z,23.70
2022-09-03T13:11:11.043Z,23.70
2022-09-03T13:14:10.667Z,23.40
2022-09-03T13:16:46.338Z,23.10
2022-09-03T13:19:56.727Z,23.00
2022-09-03T13:22:32.043Z,22.90
2022-09-03T13:25:07.523Z,22.70
2022-09-03T13:28:17.729Z,22.70
2022-09-03T13:31:05.674Z,22.40
2022-09-03T13:33:40.567Z,22.50
2022-09-03T13:36:13.716Z,22.40
2022-09-03T13:38:56.580Z,22.30
2022-09-03T13:41:43.220Z,22.30
2022-09-03T13:44:11.647Z,22.30
2022-09-03T13:46:56.421Z,21.50
2022-09-03T13:49:39.435Z,20.90
2022-09-03T13:52:12.837Z,20.60
2022-09-03T13:54:49.909Z,20.20
2022-09-03T13:57:29.059Z,20.20
2022-09-03T14:00:13.576Z,19.70
2022-09-03T14:02:50.923Z,19.30
2022-09-03T14:05:23.618Z,19.10
2022-09-03T14:07:56.026Z,19.20
2022-09-03T14:10:28.000Z,19.00
2022-09-03T14:13:16.060Z,19.00
2022-09-03T14:15:51.907Z,18.90
2022-09-03T14:18:44.602Z,18.90
2022-09-03T14:21:14.267Z,18.80
2022-09-03T14:23:54.961Z,18.70
2022-09-03T14:26:38.977Z,18.70
2022-09-03T14:29:12.010Z,18.60
2022-09-03T14:32:06.886Z,18.80
2022-09-03T14:34:59.361Z,18.80
2022-09-03T14:38:03.622Z,18.60
2022-09-03T14:40:40.773Z,18.60
2022-09-03T14:43:38.413Z,18.60
2022-09-03T14:46:35.310Z,18.60
2022-09-03T14:49:20.843Z,18.50
2022-09-03T14:52:21.738Z,18.60
2022-09-03T14:55:05.505Z,18.50
2022-09-03T14:57:56.699Z,18.50
2022-09-03T15:00:35.682Z,18.50
2022-09-03T15:03:30.221Z,18.50
2022-09-03T15:06:31.012Z,18.50
2022-09-03T15:09:11.778Z,18.60
2022-09-03T15:11:51.727Z,18.60
2022-09-03T15:14:29.129Z,18.60
2022-09-03T15:17:25.009Z,18.70
2022-09-03T15:20:00.849Z,18.60
2022-09-03T15:22:34.540Z,18.60
2022-09-03T15:25:04.228Z,18.70
2022-09-03T15:27:55.903Z,18.70
2022-09-03T15:30:22.501Z,18.60
2022-09-03T15:32:59.521Z,18.60
2022-09-03T15:35:56.659Z,18.60
2022-09-03T15:38:39.209Z,18.60
2022-09-03T15:41:28.164Z,18.50
2022-09-03T15:43:59.629Z,18.70
2022-09-03T15:46:45.046Z,18.90
2022-09-03T15:49:30.470Z,18.70
2022-09-03T15:52:20.739Z,18.40
2022-09-03T15:55:08.916Z,18.40
2022-09-03T15:57:50.453Z,18.50
2022-09-03T16:00:21.340Z,18.60
2022-09-03T16:02:59.499Z,18.80
2022-09-03T16:05:36.546Z,18.90
2022-09-03T16:08:42.651Z,19.10
2022-09-03T16:11:27.009Z,19.20
2022-09-03T16:14:12.250Z,19.20
2022-09-03T16:16:53.833Z,19.20
2022-09-03T16:19:35.227Z,19.20
2022-09-03T16:22:40.187Z,19.20
2022-09-03T16:25:15.998Z,19.10
2022-09-03T16:27:57.416Z,18.80
2022-09-03T16:30:39.286Z,18.80
2022-09-03T16:33:39.707Z,19.00
2022-09-03T16:36:37.259Z,18.80
2022-09-03T16:39:17.693Z,18.70
2022-09-03T16:41:52.285Z,18.60
2022-09-03T16:44:24.552Z,18.50
2022-09-03T16:47:07.702Z,18.50
2022-09-03T16:49:52.519Z,18.40
2022-09-03T16:52:41.687Z,18.40
2022-09-03T16:55:37.573Z,18.30
2022-09-03T16:58:40.575Z,18.20
2022-09-03T17:01:36.808Z,18.10
2022-09-03T17:04:40.277Z,17.90
2022-09-03T17:07:32.040Z,17.90
2022-09-03T17:10:17.775Z,17.90
2022-09-03T17:13:31.317Z,17.80
2022-09-03T17:16:30.726Z,17.80
2022-09-03T17:19:00.287Z,17.80
2022-09-03T17:21:45.666Z,17.80
2022-09-03T17:24:18.156Z,17.70
2022-09-03T17:27:12.493Z,17.70
2022-09-03T17:30:14.138Z,17.60
2022-09-03T17:32:50.952Z,17.60
2022-09-03T17:35:46.301Z,17.70
2022-09-03T17:38:37.602Z,17.70
2022-09-03T17:41:18.658Z,17.60
2022-09-03T17:44:12.805Z,17.60
2022-09-03T17:47:16.968Z,17.50
2022-09-03T17:49:58.200Z,17.40
2022-09-03T17:52:54.991Z,17.30
2022-09-03T17:55:35.893Z,17.30
2022-09-03T17:58:27.748Z,17.20
2022-09-03T18:01:03.355Z,17.20
2022-09-03T18:03:39.401Z,17.10
2022-09-03T18:06:41.017Z,17.10
2022-09-03T18:09:12.514Z,17.10
2022-09-03T18:11:41.747Z,17.00
2022-09-03T18:14:43.874Z,16.90
2022-09-03T18:17:22.473Z,17.00
2022-09-03T18:20:13.515Z,17.00
2022-09-03T18:23:09.543Z,17.00
2022-09-03T18:25:39.789Z,17.00
2022-09-03T18:28:12.690Z,16.90
2022-09-03T18:30:39.551Z,16.90
2022-09-03T18:33:07.250Z,16.90
2022-09-03T18:35:34.769Z,16.80
2022-09-03T18:38:04.006Z,16.80
2022-09-03T18:41:04.366Z,16.70
2022-09-03T18:43:54.273Z,16.70
2022-09-03T18:49:56.899Z,16.70
2022-09-03T18:52:38.497Z,16.60
2022-09-03T18:55:37.920Z,16.60
2022-09-03T18:58:40.583Z,16.60
2022-09-03T19:01:16.280Z,16.60
2022-09-03T19:04:07.547Z,16.60
2022-09-03T19:07:04.363Z,16.60
2022-09-03T19:09:51.202Z,16.50
2022-09-03T19:12:50.066Z,16.50
2022-09-03T19:15:31.340Z,16.50
2022-09-03T19:18:47.740Z,16.40
2022-09-03T19:21:40.675Z,16.40
2022-09-03T19:24:07.333Z,16.40
2022-09-03T19:27:14.049Z,16.30
2022-09-03T19:30:11.566Z,16.30
2022-09-03T19:32:57.073Z,16.20
2022-09-03T19:35:32.640Z,16.20
2022-09-03T19:38:19.179Z,16.20
2022-09-03T19:41:10.114Z,16.20
2022-09-03T19:43:42.950Z,16.20
2022-09-03T19:46:25.991Z,16.20
2022-09-03T19:48:59.582Z,16.20
2022-09-03T19:51:35.253Z,16.20
2022-09-03T19:54:04.339Z,16.00
2022-09-03T19:56:30.932Z,15.90
2022-09-03T19:59:04.302Z,15.80
2022-09-03T20:01:36.377Z,15.80
2022-09-03T20:04:13.814Z,15.80
2022-09-03T20:06:40.771Z,15.80
2022-09-03T20:09:15.339Z,15.80
2022-09-03T20:11:42.094Z,15.70
2022-09-03T20:14:15.574Z,15.70
2022-09-03T20:16:47.946Z,15.80
2022-09-03T20:19:37.671Z,15.80
2022-09-03T20:22:26.025Z,15.80
2022-09-03T20:24:58.991Z,15.70
2022-09-03T20:27:25.543Z,15.60
2022-09-03T20:30:06.522Z,15.40
2022-09-03T20:33:06.567Z,15.40
2022-09-03T20:35:43.462Z,15.50
2022-09-03T20:38:21.315Z,15.50
2022-09-03T20:41:10.900Z,15.50
2022-09-03T20:44:05.606Z,15.40
2022-09-03T20:47:03.079Z,15.40
2022-09-03T20:49:55.790Z,15.30
2022-09-03T20:52:37.315Z,15.20
2022-09-03T20:55:03.914Z,15.20
2022-09-03T20:57:45.300Z,15.20
2022-09-03T21:00:17.298Z,15.20
2022-09-03T21:03:15.798Z,15.30
2022-09-03T21:06:00.746Z,15.30
2022-09-03T21:08:55.395Z,15.30
2022-09-03T21:11:57.947Z,15.40
2022-09-03T21:14:30.717Z,15.30
2022-09-03T21:17:38.617Z,15.30
2022-09-03T21:20:10.949Z,15.30
2022-09-03T21:23:05.717Z,15.30
2022-09-03T21:25:47.690Z,15.30
2022-09-03T21:28:22.050Z,15.20
2022-09-03T21:31:02.631Z,15.20
2022-09-03T21:33:33.151Z,15.20
2022-09-03T21:36:28.580Z,15.20
2022-09-03T21:39:18.477Z,15.20
2022-09-03T21:42:00.261Z,15.20
2022-09-03T21:44:46.707Z,15.10
2022-09-03T21:47:16.634Z,14.90
2022-09-03T21:50:16.355Z,14.90
2022-09-03T21:53:16.176Z,14.90
2022-09-03T21:56:20.281Z,14.90
2022-09-03T21:58:46.826Z,14.90
2022-09-03T22:01:45.643Z,15.00
2022-09-03T22:04:12.257Z,15.00
2022-09-03T22:06:53.391Z,15.00
2022-09-03T22:09:39.645Z,15.00
2022-09-03T22:12:20.386Z,15.00
2022-09-03T22:14:51.208Z,15.00
2022-09-03T22:17:34.565Z,15.10
2022-09-03T22:20:06.669Z,15.00
2022-09-03T22:22:43.893Z,15.00
2022-09-03T22:25:22.280Z,15.00
2022-09-03T22:28:14.490Z,15.00
2022-09-03T22:31:03.881Z,15.00
2022-09-03T22:33:42.020Z,15.00
2022-09-03T22:36:42.329Z,14.80
2022-09-03T22:39:21.229Z,14.80
2022-09-03T22:42:12.759Z,14.60
2022-09-03T22:45:03.465Z,14.50
2022-09-03T22:47:30.168Z,14.40
2022-09-03T22:50:28.038Z,14.30
2022-09-03T22:53:30.551Z,14.30
2022-09-03T22:56:13.003Z,14.30
2022-09-03T22:58:47.069Z,14.40
2022-09-03T23:01:19.702Z,14.40
2022-09-03T23:04:05.730Z,14.40
2022-09-03T23:06:36.098Z,14.30
2022-09-03T23:09:14.256Z,14.30
2022-09-03T23:12:00.686Z,14.30
2022-09-03T23:14:36.573Z,14.40
2022-09-03T23:17:14.279Z,14.40
2022-09-03T23:19:52.677Z,14.40
2022-09-03T23:22:29.574Z,14.40
2022-09-03T23:25:04.873Z,14.40
2022-09-03T23:27:42.017Z,14.40
2022-09-03T23:30:09.028Z,14.40
2022-09-03T23:32:35.917Z,14.40
2022-09-03T23:35:11.723Z,14.40
2022-09-03T23:38:07.164Z,14.40
2022-09-03T23:40:44.571Z,14.40
2022-09-03T23:43:41.834Z,14.40
2022-09-03T23:46:36.507Z,14.30
2022-09-03T23:49:42.109Z,14.40
2022-09-03T23:52:19.102Z,14.30
2022-09-03T23:55:14.275Z,14.30
2022-09-03T23:57:45.838Z,14.30
